createdAt,value
2023-04-02T00:01:00.748Z,0.70
2023-04-02T00:03:42.229Z,0.50
2023-04-02T00:06:32.763Z,0.70
2023-04-02T00:09:22.336Z,0.70
2023-04-02T00:11:55.612Z,0.60
2023-04-02T00:14:34.971Z,0.73
2023-04-02T00:17:05.578Z,0.60
2023-04-02T00:20:00.230Z,0.50
2023-04-02T00:22:33.655Z,0.80
2023-04-02T00:25:12.319Z,0.75
2023-04-02T00:27:40.177Z,0.43
2023-04-02T00:30:08.747Z,0.60
2023-04-02T00:32:37.064Z,0.63
2023-04-02T00:35:26.051Z,0.53
2023-04-02T00:37:54.569Z,0.67
2023-04-02T00:40:31.756Z,0.90
2023-04-02T00:43:04.294Z,0.73
2023-04-02T00:45:36.687Z,1.10
2023-04-02T00:48:22.201Z,0.73
2023-04-02T00:50:52.875Z,1.00
2023-04-02T00:53:28.499Z,0.77
2023-04-02T00:55:58.782Z,1.10
2023-04-02T00:58:36.697Z,1.47
2023-04-02T01:01:04.733Z,0.70
2023-04-02T01:03:36.620Z,0.50
2023-04-02T01:06:11.340Z,0.60
2023-04-02T01:08:58.861Z,0.50
2023-04-02T01:12:01.962Z,0.63
2023-04-02T01:15:07.545Z,0.60
2023-04-02T01:18:09.612Z,0.73
2023-04-02T01:21:10.350Z,0.90
2023-04-02T01:24:02.742Z,0.70
2023-04-02T01:27:02.199Z,0.97
2023-04-02T01:29:46.676Z,0.80
2023-04-02T01:32:18.705Z,0.60
2023-04-02T01:34:49.325Z,0.63
2023-04-02T01:37:49.923Z,0.67
2023-04-02T01:40:39.885Z,0.73
2023-04-02T01:43:33.681Z,0.60
2023-04-02T01:46:29.589Z,0.90
2023-04-02T01:49:00.424Z,0.80
2023-04-02T01:51:36.101Z,0.50
2023-04-02T01:54:07.610Z,0.83
2023-04-02T01:56:35.661Z,0.67
2023-04-02T01:59:05.893Z,0.90
2023-04-02T02:01:48.390Z,1.20
2023-04-02T02:04:17.542Z,1.10
2023-04-02T02:06:47.111Z,1.10
2023-04-02T02:09:27.150Z,0.93
2023-04-02T02:11:58.719Z,0.90
2023-04-02T02:14:29.227Z,1.23
2023-04-02T02:17:02.363Z,0.87
2023-04-02T02:19:42.515Z,0.82
2023-04-02T02:22:21.785Z,0.70
2023-04-02T02:24:49.554Z,0.57
2023-04-02T02:27:23.251Z,0.43
2023-04-02T02:30:38.263Z,0.80
2023-04-02T02:33:30.966Z,0.70
2023-04-02T02:36:36.796Z,0.73
2023-04-02T02:39:31.262Z,0.70
2023-04-02T02:42:31.795Z,0.63
2023-04-02T02:45:03.048Z,0.60
2023-04-02T02:47:34.916Z,0.60
2023-04-02T02:52:39.873Z,0.57
2023-04-02T02:55:17.626Z,0.60
2023-04-02T02:58:07.553Z,0.60
2023-04-02T03:03:23.373Z,0.70
2023-04-02T03:06:02.647Z,0.73
2023-04-02T03:08:40.084Z,0.77
2023-04-02T03:11:33.261Z,0.80
2023-04-02T03:14:48.827Z,0.50
2023-04-02T03:17:32.315Z,0.87
2023-04-02T03:20:52.100Z,0.57
2023-04-02T03:23:32.523Z,0.60
2023-04-02T03:26:20.873Z,0.50
2023-04-02T03:29:22.736Z,0.90
2023-04-02T03:32:22.924Z,0.67
2023-04-02T03:35:01.489Z,0.47
2023-04-02T03:37:46.211Z,0.50
2023-04-02T03:40:34.369Z,0.70
2023-04-02T03:43:20.528Z,0.57
2023-04-02T03:45:56.989Z,0.50
2023-04-02T03:48:43.475Z,0.77
2023-04-02T03:51:49.099Z,0.90
2023-04-02T03:54:17.318Z,0.67
2023-04-02T03:56:47.466Z,0.90
2023-04-02T03:59:37.930Z,0.77
2023-04-02T04:02:38.495Z,0.80
2023-04-02T04:05:18.768Z,0.73
2023-04-02T04:07:46.859Z,0.90
2023-04-02T04:10:22.185Z,0.80
2023-04-02T04:12:52.914Z,0.60
2023-04-02T04:15:22.134Z,1.20
2023-04-02T04:18:10.485Z,0.83
2023-04-02T04:21:00.728Z,0.73
2023-04-02T04:23:40.923Z,0.70
2023-04-02T04:26:30.984Z,0.50
2023-04-02T04:29:45.531Z,0.97
2023-04-02T04:32:31.739Z,1.47
2023-04-02T04:35:37.518Z,0.70
2023-04-02T04:38:16.607Z,0.57
2023-04-02T04:40:56.801Z,0.77
2023-04-02T04:43:51.045Z,0.57
2023-04-02T04:47:06.040Z,0.60
2023-04-02T04:49:46.508Z,0.50
2023-04-02T04:52:32.794Z,0.63
2023-04-02T04:55:01.278Z,0.87
2023-04-02T04:57:39.814Z,0.60
2023-04-02T05:00:25.645Z,0.60
2023-04-02T05:03:22.191Z,0.60
2023-04-02T05:05:50.743Z,0.60
2023-04-02T05:08:30.465Z,0.60
2023-04-02T05:11:04.730Z,0.70
2023-04-02T05:13:54.256Z,0.83
2023-04-02T05:16:41.421Z,0.50
2023-04-02T05:19:19.500Z,0.60
2023-04-02T05:21:59.819Z,0.60
2023-04-02T05:24:57.226Z,0.30
2023-04-02T05:27:54.744Z,0.40
2023-04-02T05:30:25.235Z,0.70
2023-04-02T05:33:04.910Z,0.70
2023-04-02T05:35:36.711Z,0.70
2023-04-02T05:38:06.649Z,0.70
2023-04-02T05:40:44.477Z,0.50
2023-04-02T05:43:18.836Z,0.53
2023-04-02T05:45:55.735Z,0.60
2023-04-02T05:48:35.719Z,0.60
2023-04-02T05:51:09.501Z,0.50
2023-04-02T05:53:41.598Z,0.82
2023-04-02T05:56:28.055Z,0.67
2023-04-02T05:59:27.044Z,0.97
2023-04-02T06:02:11.467Z,0.97
2023-04-02T06:04:57.665Z,0.80
2023-04-02T06:07:46.375Z,0.57
2023-04-02T06:10:25.724Z,0.80
2023-04-02T06:13:08.424Z,0.80
2023-04-02T06:15:40.724Z,0.90
2023-04-02T06:18:17.561Z,0.60
2023-04-02T06:20:46.342Z,0.70
2023-04-02T06:23:53.202Z,0.70
2023-04-02T06:26:33.351Z,0.60
2023-04-02T06:29:18.113Z,1.27
2023-04-02T06:32:00.730Z,0.80
2023-04-02T06:34:31.159Z,0.70
2023-04-02T06:37:21.169Z,1.20
2023-04-02T06:39:51.045Z,0.63
2023-04-02T06:42:34.342Z,0.80
2023-04-02T06:45:29.323Z,1.00
2023-04-02T06:48:26.341Z,0.90
2023-04-02T06:51:11.463Z,0.80
2023-04-02T06:53:51.538Z,1.00
2023-04-02T06:56:51.382Z,1.30
2023-04-02T06:59:26.202Z,1.03
2023-04-02T07:02:32.672Z,1.10
2023-04-02T07:05:09.441Z,1.30
2023-04-02T07:07:40.589Z,1.10
2023-04-02T07:10:12.782Z,1.10
2023-04-02T07:12:40.641Z,1.60
2023-04-02T07:15:14.725Z,1.30
2023-04-02T07:17:43.791Z,0.90
2023-04-02T07:20:33.756Z,1.77
2023-04-02T07:23:06.203Z,1.00
2023-04-02T07:25:33.928Z,1.30
2023-04-02T07:28:01.697Z,1.10
2023-04-02T07:30:29.167Z,1.07
2023-04-02T07:32:56.687Z,1.40
2023-04-02T07:35:24.233Z,1.00
2023-04-02T07:37:52.806Z,1.60
2023-04-02T07:40:22.869Z,1.07
2023-04-02T07:42:50.632Z,1.10
2023-04-02T07:45:18.188Z,0.90
2023-04-02T07:47:45.729Z,0.57
2023-04-02T07:50:13.450Z,1.07
2023-04-02T07:52:42.470Z,1.10
2023-04-02T07:55:15.476Z,0.97
2023-04-02T07:57:58.587Z,0.95
2023-04-02T08:00:29.048Z,0.60
2023-04-02T08:02:56.716Z,0.80
2023-04-02T08:05:24.337Z,0.93
2023-04-02T08:07:56.672Z,1.83
2023-04-02T08:10:24.721Z,1.17
2023-04-02T08:12:52.341Z,0.90
2023-04-02T08:15:19.877Z,1.00
2023-04-02T08:17:47.879Z,0.93
2023-04-02T08:20:19.022Z,1.27
2023-04-02T08:22:47.347Z,0.77
2023-04-02T08:25:15.461Z,0.90
2023-04-02T08:27:43.289Z,1.07
2023-04-02T08:30:13.947Z,0.80
2023-04-02T08:32:41.554Z,0.80
2023-04-02T08:35:12.183Z,0.60
2023-04-02T08:37:39.761Z,0.80
2023-04-02T08:40:15.983Z,0.80
2023-04-02T08:43:03.609Z,1.67
2023-04-02T08:45:50.513Z,1.20
2023-04-02T08:48:18.539Z,0.83
2023-04-02T08:50:46.312Z,1.30
2023-04-02T08:53:25.629Z,0.70
2023-04-02T08:56:33.527Z,1.10
2023-04-02T08:59:19.799Z,0.90
2023-04-02T09:02:03.686Z,0.40
2023-04-02T09:04:33.274Z,0.57
2023-04-02T09:07:00.930Z,0.77
2023-04-02T09:09:28.694Z,0.83
2023-04-02T09:12:05.317Z,0.47
2023-04-02T09:15:22.558Z,0.57
2023-04-02T09:18:00.447Z,1.13
2023-04-02T09:20:29.300Z,1.20
2023-04-02T09:22:57.687Z,0.90
2023-04-02T09:25:28.425Z,0.80
2023-04-02T09:28:02.681Z,0.70
2023-04-02T09:30:51.976Z,0.60
2023-04-02T09:33:19.498Z,0.50
2023-04-02T09:35:49.988Z,0.90
2023-04-02T09:38:31.626Z,0.87
2023-04-02T09:41:03.802Z,1.03
2023-04-02T09:43:37.902Z,0.90
2023-04-02T09:46:25.798Z,0.77
2023-04-02T09:49:03.365Z,0.60
2023-04-02T09:51:34.659Z,1.07
2023-04-02T09:54:13.473Z,0.83
2023-04-02T09:56:57.993Z,1.00
2023-04-02T09:59:25.955Z,0.73
2023-04-02T10:01:53.463Z,0.67
2023-04-02T10:04:45.015Z,1.10
2023-04-02T10:07:42.821Z,0.75
2023-04-02T10:10:31.279Z,0.90
2023-04-02T10:13:03.198Z,0.60
2023-04-02T10:15:43.530Z,0.80
2023-04-02T10:18:53.788Z,1.05
2023-04-02T10:21:37.484Z,3.60
2023-04-02T10:24:16.841Z,4.55
2023-04-02T10:27:02.549Z,1.13
2023-04-02T10:30:19.078Z,1.00
2023-04-02T10:32:56.519Z,0.95
2023-04-02T10:35:45.243Z,0.80
2023-04-02T10:38:43.108Z,0.90
2023-04-02T10:41:33.444Z,0.90
2023-04-02T10:44:39.094Z,0.70
2023-04-02T10:47:34.112Z,0.90
2023-04-02T10:50:24.290Z,0.80
2023-04-02T10:53:17.984Z,1.00
2023-04-02T10:55:58.202Z,1.00
2023-04-02T10:58:29.941Z,0.70
2023-04-02T11:01:07.890Z,0.75
2023-04-02T11:03:53.843Z,0.80
2023-04-02T11:06:28.677Z,0.85
2023-04-02T11:09:04.851Z,0.90
2023-04-02T11:11:50.800Z,0.75
2023-04-02T11:14:24.243Z,0.90
2023-04-02T11:16:54.820Z,0.75
2023-04-02T11:19:29.524Z,0.90
2023-04-02T11:22:06.634Z,1.05
2023-04-02T11:24:47.725Z,0.77
2023-04-02T11:27:24.467Z,0.60
2023-04-02T11:30:27.472Z,0.60
2023-04-02T11:33:39.824Z,0.70
2023-04-02T11:36:50.272Z,0.52
2023-04-02T11:39:59.578Z,0.70
2023-04-02T11:42:36.065Z,0.80
2023-04-02T11:45:21.993Z,0.88
2023-04-02T11:48:02.184Z,1.08
2023-04-02T11:50:31.900Z,1.30
2023-04-02T11:53:10.257Z,1.25
2023-04-02T11:55:47.383Z,1.40
2023-04-02T11:58:42.168Z,1.48
2023-04-02T12:01:50.231Z,0.93
2023-04-02T12:05:16.650Z,0.70
2023-04-02T12:08:11.882Z,1.08
2023-04-02T12:11:01.248Z,1.63
2023-04-02T12:13:40.722Z,1.60
2023-04-02T12:16:13.413Z,1.50
2023-04-02T12:21:26.988Z,9.75
2023-04-02T12:23:59.128Z,2.40
2023-04-02T12:26:37.166Z,1.20
2023-04-02T12:29:26.698Z,1.30
2023-04-02T12:31:57.225Z,1.00
2023-04-02T12:34:29.572Z,0.90
2023-04-02T12:37:03.943Z,0.95
2023-04-02T12:39:34.102Z,1.63
2023-04-02T12:42:02.206Z,1.10
2023-04-02T12:44:31.208Z,1.15
2023-04-02T12:46:59.423Z,1.02
2023-04-02T12:49:43.083Z,0.75
2023-04-02T12:52:17.653Z,1.00
2023-04-02T12:55:02.925Z,1.50
2023-04-02T12:57:40.371Z,1.10
2023-04-02T13:00:20.891Z,1.40
2023-04-02T13:03:04.426Z,2.45
2023-04-02T13:05:54.802Z,2.17
2023-04-02T13:08:37.195Z,1.70
2023-04-02T13:11:06.189Z,2.00
2023-04-02T13:13:40.519Z,1.90
2023-04-02T13:16:19.700Z,1.95
2023-04-02T13:18:49.701Z,2.10
2023-04-02T13:21:17.546Z,2.97
2023-04-02T13:23:46.087Z,3.97
2023-04-02T13:26:21.937Z,3.35
2023-04-02T13:29:04.693Z,3.17
2023-04-02T13:31:33.298Z,1.50
2023-04-02T13:34:01.405Z,3.03
2023-04-02T13:36:29.288Z,2.63
2023-04-02T13:38:57.461Z,3.28
2023-04-02T13:41:40.289Z,2.03
2023-04-02T13:44:17.950Z,2.20
2023-04-02T13:46:45.573Z,3.80
2023-04-02T13:49:13.066Z,3.53
2023-04-02T13:52:10.501Z,3.00
2023-04-02T13:54:48.801Z,2.90
2023-04-02T13:57:16.524Z,2.80
2023-04-02T13:59:44.031Z,1.90
2023-04-02T14:02:20.358Z,2.30
2023-04-02T14:05:02.480Z,1.83
2023-04-02T14:07:51.550Z,2.47
2023-04-02T14:10:51.054Z,1.83
2023-04-02T14:14:02.683Z,1.67
2023-04-02T14:16:52.229Z,2.27
2023-04-02T14:19:31.649Z,2.47
2023-04-02T14:22:23.376Z,2.23
2023-04-02T14:25:26.032Z,1.63
2023-04-02T14:28:20.454Z,2.27
2023-04-02T14:34:00.753Z,2.78
2023-04-02T14:36:51.038Z,2.93
2023-04-02T14:40:10.281Z,2.33
2023-04-02T14:43:00.324Z,1.97
2023-04-02T14:46:05.815Z,2.37
2023-04-02T14:48:54.283Z,1.77
2023-04-02T14:51:52.798Z,1.30
2023-04-02T14:54:26.011Z,1.90
2023-04-02T14:57:23.479Z,1.38
2023-04-02T15:00:10.687Z,1.50
2023-04-02T15:03:11.132Z,2.30
2023-04-02T15:05:46.236Z,1.93
2023-04-02T15:08:35.073Z,2.40
2023-04-02T15:11:31.210Z,3.07
2023-04-02T15:14:13.029Z,7.53
2023-04-02T15:16:40.877Z,4.50
2023-04-02T15:19:16.419Z,2.50
2023-04-02T15:22:14.858Z,3.93
2023-04-02T15:24:57.262Z,2.20
2023-04-02T15:27:52.523Z,2.70
2023-04-02T15:30:37.043Z,1.70
2023-04-02T15:33:27.321Z,3.37
2023-04-02T15:36:17.296Z,2.63
2023-04-02T15:38:53.214Z,2.37
2023-04-02T15:41:27.407Z,1.50
2023-04-02T15:44:13.557Z,1.80
2023-04-02T15:47:10.230Z,2.00
2023-04-02T15:50:17.121Z,1.60
2023-04-02T15:53:09.914Z,1.87
2023-04-02T15:55:49.279Z,1.90
2023-04-02T15:58:53.300Z,1.60
2023-04-02T16:01:50.073Z,1.50
2023-04-02T16:04:42.932Z,1.90
2023-04-02T16:08:00.622Z,2.73
2023-04-02T16:10:42.331Z,2.03
2023-04-02T16:13:36.814Z,1.70
2023-04-02T16:16:33.861Z,2.90
2023-04-02T16:19:17.334Z,2.30
2023-04-02T16:21:56.578Z,2.45
2023-04-02T16:24:24.334Z,3.97
2023-04-02T16:26:57.281Z,4.33
2023-04-02T16:29:55.028Z,2.87
2023-04-02T16:32:28.172Z,2.80
2023-04-02T16:38:28.926Z,3.70
2023-04-02T16:41:27.580Z,4.10
2023-04-02T16:44:21.703Z,2.60
2023-04-02T16:47:40.189Z,3.10
2023-04-02T16:50:34.490Z,2.90
2023-04-02T16:57:05.144Z,2.10
2023-04-02T16:59:39.415Z,2.67
2023-04-02T17:02:24.264Z,2.60
2023-04-02T17:05:31.046Z,2.10
2023-04-02T17:08:30.088Z,2.03
2023-04-02T17:11:06.956Z,3.03
2023-04-02T17:14:05.797Z,2.77
2023-04-02T17:16:46.188Z,2.83
2023-04-02T17:19:17.116Z,2.90
2023-04-02T17:21:52.527Z,2.53
2023-04-02T17:24:33.863Z,2.47
2023-04-02T17:27:20.230Z,3.37
2023-04-02T17:29:52.889Z,2.57
2023-04-02T17:32:36.870Z,3.13
2023-04-02T17:35:59.418Z,2.50
2023-04-02T17:38:48.447Z,2.20
2023-04-02T17:41:31.767Z,2.17
2023-04-02T17:44:45.838Z,3.90
2023-04-02T17:47:23.077Z,3.27
2023-04-02T17:50:17.549Z,2.53
2023-04-02T17:52:53.112Z,3.08
2023-04-02T17:55:41.949Z,3.80
2023-04-02T17:58:37.276Z,2.13
2023-04-02T18:01:28.075Z,2.33
2023-04-02T18:04:36.318Z,2.30
2023-04-02T18:07:40.193Z,2.70
2023-04-02T18:10:38.673Z,3.07
2023-04-02T18:13:30.769Z,2.77
2023-04-02T18:16:37.817Z,2.80
2023-04-02T18:19:29.380Z,2.40
2023-04-02T18:22:40.929Z,2.77
2023-04-02T18:26:04.118Z,2.30
2023-04-02T18:28:41.527Z,2.87
2023-04-02T18:31:33.308Z,2.73
2023-04-02T18:34:17.678Z,2.57
2023-04-02T18:37:19.513Z,2.70
2023-04-02T18:40:15.582Z,2.83
2023-04-02T18:43:32.858Z,3.27
2023-04-02T18:46:29.166Z,2.97
2023-04-02T18:49:03.619Z,3.00
2023-04-02T18:51:37.301Z,2.93
2023-04-02T18:54:22.584Z,2.80
2023-04-02T18:56:50.097Z,2.50
2023-04-02T18:59:57.358Z,2.90
2023-04-02T19:02:51.992Z,2.80
2023-04-02T19:05:35.545Z,3.20
2023-04-02T19:08:16.234Z,4.20
2023-04-02T19:10:47.926Z,2.53
2023-04-02T19:13:18.833Z,2.67
2023-04-02T19:15:58.390Z,2.33
2023-04-02T19:18:49.108Z,2.70
2023-04-02T19:21:46.027Z,2.77
2023-04-02T19:24:58.523Z,2.40
2023-04-02T19:27:53.759Z,3.53
2023-04-02T19:30:53.472Z,3.40
2023-04-02T19:33:47.949Z,3.00
2023-04-02T19:36:41.495Z,2.90
2023-04-02T19:39:35.504Z,3.00
2023-04-02T19:42:31.119Z,2.92
2023-04-02T19:44:58.973Z,2.60
2023-04-02T19:47:26.742Z,2.60
2023-04-02T19:49:55.687Z,2.27
2023-04-02T19:52:23.178Z,2.30
2023-04-02T19:54:50.686Z,3.70
2023-04-02T19:57:18.303Z,4.37
2023-04-02T19:59:45.899Z,3.27
2023-04-02T20:02:13.477Z,2.83
2023-04-02T20:04:40.988Z,3.23
2023-04-02T20:07:08.511Z,2.63
2023-04-02T20:09:35.967Z,2.17
2023-04-02T20:12:04.059Z,2.43
2023-04-02T20:14:31.538Z,2.63
2023-04-02T20:16:59.110Z,2.60
2023-04-02T20:19:26.687Z,2.97
2023-04-02T20:21:54.174Z,2.80
2023-04-02T20:24:21.674Z,2.87
2023-04-02T20:26:49.393Z,2.40
2023-04-02T20:29:16.984Z,3.00
2023-04-02T20:31:44.492Z,3.30
2023-04-02T20:34:12.138Z,4.17
2023-04-02T20:36:39.936Z,2.83
2023-04-02T20:39:09.062Z,2.97
2023-04-02T20:41:36.568Z,2.60
2023-04-02T20:44:04.063Z,2.43
2023-04-02T20:46:31.606Z,2.10
2023-04-02T20:48:59.089Z,2.40
2023-04-02T20:51:26.576Z,2.33
2023-04-02T20:53:54.369Z,2.40
2023-04-02T20:56:26.393Z,3.50
2023-04-02T20:58:53.878Z,4.03
2023-04-02T21:01:29.199Z,3.73
2023-04-02T21:03:59.434Z,2.97
2023-04-02T21:06:33.520Z,2.37
2023-04-02T21:09:05.365Z,2.50
2023-04-02T21:11:36.431Z,2.38
2023-04-02T21:14:04.287Z,2.60
2023-04-02T21:16:32.425Z,2.40
2023-04-02T21:19:04.533Z,2.23
2023-04-02T21:21:32.740Z,2.03
2023-04-02T21:24:03.696Z,2.20
2023-04-02T21:26:34.925Z,2.03
2023-04-02T21:29:04.065Z,2.07
2023-04-02T21:31:39.390Z,1.87
2023-04-02T21:34:09.310Z,2.07
2023-04-02T21:36:41.749Z,1.90
2023-04-02T21:39:15.915Z,2.03
2023-04-02T21:41:46.616Z,2.27
2023-04-02T21:44:16.866Z,2.23
2023-04-02T21:46:44.863Z,2.83
2023-04-02T21:49:16.175Z,3.00
2023-04-02T21:51:46.527Z,2.40
2023-04-02T21:54:14.066Z,3.13
2023-04-02T21:56:46.386Z,2.87
2023-04-02T21:59:16.860Z,2.70
2023-04-02T22:01:50.519Z,2.30
2023-04-02T22:04:25.013Z,2.50
2023-04-02T22:06:53.575Z,2.20
2023-04-02T22:09:24.625Z,2.40
2023-04-02T22:11:58.608Z,1.93
2023-04-02T22:16:55.160Z,2.43
2023-04-02T22:19:22.772Z,2.90
2023-04-02T22:21:50.506Z,2.30
2023-04-02T22:24:21.840Z,3.00
2023-04-02T22:26:49.428Z,2.40
2023-04-02T22:29:17.125Z,2.20
2023-04-02T22:31:45.458Z,2.20
2023-04-02T22:34:13.043Z,2.27
2023-04-02T22:36:41.168Z,2.37
2023-04-02T22:39:11.949Z,2.00
2023-04-02T22:41:39.528Z,1.80
2023-04-02T22:44:07.248Z,2.47
2023-04-02T22:46:35.061Z,2.33
2023-04-02T22:49:03.148Z,2.73
2023-04-02T22:51:30.967Z,2.63
2023-04-02T22:53:58.462Z,3.30
2023-04-02T22:56:31.625Z,2.90
2023-04-02T22:58:59.383Z,2.00
2023-04-02T23:01:33.000Z,2.63
2023-04-02T23:04:00.859Z,2.40
2023-04-02T23:06:28.864Z,2.23
2023-04-02T23:08:56.780Z,2.30
2023-04-02T23:11:27.644Z,2.20
2023-04-02T23:13:57.427Z,2.40
2023-04-02T23:16:27.823Z,2.50
2023-04-02T23:18:56.546Z,2.43
2023-04-02T23:21:25.068Z,2.77
2023-04-02T23:23:53.038Z,2.50
2023-04-02T23:26:31.349Z,2.10
2023-04-02T23:29:00.365Z,2.07
2023-04-02T23:31:28.284Z,2.23
2023-04-02T23:33:55.821Z,2.30
2023-04-02T23:36:24.912Z,2.33
2023-04-02T23:38:55.318Z,1.70
2023-04-02T23:41:26.685Z,2.30
2023-04-02T23:43:56.114Z,2.40
2023-04-02T23:46:24.777Z,1.90
2023-04-02T23:48:52.985Z,2.17
2023-04-02T23:51:21.588Z,2.40
2023-04-02T23:53:50.586Z,2.07
2023-04-02T23:56:19.142Z,2.33
2023-04-02T23:58:46.669Z,2.30
